Ivs Kestrel — 9V2398 — position and weather

sailwx.info

Track history (hours):
 
Tides and Currents Weather Stations Pressure Air Temp Water Temp Dewpoint Dewpoint Depression Visibility Wind Speed Wind Dir Waves Ship Positions

Ivs Kestrel

Last reported at 2017-Oct-14 01:24 UTC. Time now 2017-Oct-17 13:07 UTC.
Position N 01°15' E 104°08'.

Length 171 m; draft 6.6 m.

Type: Ship. MMSI: 564634000.

Date/timePositionNaut miles runAvg speedWind from/ knotsBaromVisibWave heightAir tempDewpointWater temp
2017-Oct-14 01:24N 01°15' E 104°08'1 3.1
2017-Oct-14 00:58N 01°15' E 104°07'1 3.0
2017-Oct-14 00:29N 01°15' E 104°06'2 3.0
2017-Oct-13 23:49N 01°15' E 104°04'1 2.9
2017-Oct-13 23:30N 01°14' E 104°03'1 2.9
2017-Oct-13 23:00N 01°14' E 104°01'2 2.9
2017-Oct-13 22:30N 01°14' E 103°60'6 0.7
2017-Oct-13 14:07N 01°15' E 104°05'214.2
2017-Oct-13 14:00N 01°15' E 104°04'713.9
2017-Oct-13 13:30N 01°13' E 103°57'713.5
2017-Oct-13 13:00N 01°11' E 103°51'3 6.3
2017-Oct-13 12:31N 01°13' E 103°48'510.0
2017-Oct-13 12:01N 01°16' E 103°45'2 3.9
2017-Oct-13 11:26N 01°18' E 103°43'0 0.6
2017-Oct-13 10:59N 01°18' E 103°43'0 0.0
2017-Oct-13 10:29N 01°18' E 103°43'0 0.0
2017-Oct-13 09:56N 01°18' E 103°43'0 0.0
2017-Oct-13 09:29N 01°18' E 103°43'0 0.0
2017-Oct-13 08:59N 01°18' E 103°43'0 0.0
2017-Oct-13 08:29N 01°18' E 103°43'0 0.0
2017-Oct-13 07:59N 01°18' E 103°43'0 0.0
2017-Oct-13 07:29N 01°18' E 103°43'0 0.0
2017-Oct-13 06:59N 01°18' E 103°43'0 0.0
2017-Oct-13 06:29N 01°18' E 103°43'0 0.0
2017-Oct-13 05:59N 01°18' E 103°43'0 0.0
2017-Oct-13 05:29N 01°18' E 103°43'0 0.0
2017-Oct-13 04:59N 01°18' E 103°43'0 0.0
2017-Oct-13 04:29N 01°18' E 103°43'0 0.0
2017-Oct-13 03:59N 01°18' E 103°43'0 0.0
2017-Oct-13 03:29N 01°18' E 103°43'0 0.0
2017-Oct-13 02:59N 01°18' E 103°43'0 0.0
2017-Oct-13 02:29N 01°18' E 103°43'0 0.0
2017-Oct-13 01:59N 01°18' E 103°43'0 0.0
2017-Oct-13 01:29N 01°18' E 103°43'0 0.0
2017-Oct-13 00:59N 01°18' E 103°43'0 0.0
2017-Oct-13 00:29N 01°18' E 103°43'0 0.0
2017-Oct-12 23:59N 01°18' E 103°43'0 0.0
2017-Oct-12 23:29N 01°18' E 103°43'0 0.0
2017-Oct-12 22:59N 01°18' E 103°43'0 0.0
2017-Oct-12 22:29N 01°18' E 103°43'0 0.0
2017-Oct-12 21:59N 01°18' E 103°43'0 0.0
2017-Oct-12 21:29N 01°18' E 103°43'0 0.0
2017-Oct-12 20:59N 01°18' E 103°43'0 0.0
2017-Oct-12 20:29N 01°18' E 103°43'0 0.0
2017-Oct-12 19:59N 01°18' E 103°43'0 0.0
2017-Oct-12 19:29N 01°18' E 103°43'0 0.0
2017-Oct-12 18:59N 01°18' E 103°43'0 0.0
2017-Oct-12 18:29N 01°18' E 103°43'0 0.0
2017-Oct-12 17:59N 01°18' E 103°43'0 0.0
2017-Oct-12 17:29N 01°18' E 103°43'0 0.0
2017-Oct-12 16:59N 01°18' E 103°43'0 0.0
2017-Oct-12 16:29N 01°18' E 103°43'0 0.0
2017-Oct-12 15:59N 01°18' E 103°43'0 0.0
2017-Oct-12 15:29N 01°18' E 103°43'0 0.0
2017-Oct-12 14:59N 01°18' E 103°43'0 0.0
2017-Oct-12 14:29N 01°18' E 103°43'0 0.0
2017-Oct-12 13:59N 01°18' E 103°43'0 0.0
2017-Oct-12 13:29N 01°18' E 103°43'0 0.0
2017-Oct-12 12:59N 01°18' E 103°43'0 0.0
2017-Oct-12 12:29N 01°18' E 103°43'0 0.0
2017-Oct-12 11:53N 01°18' E 103°43'0 0.0
2017-Oct-12 11:29N 01°18' E 103°43'0 0.0
2017-Oct-12 10:59N 01°18' E 103°43'0 0.0
2017-Oct-12 10:29N 01°18' E 103°43'0 0.0
2017-Oct-12 09:59N 01°18' E 103°43'0 0.0
2017-Oct-12 09:29N 01°18' E 103°43'0 0.0
2017-Oct-12 08:59N 01°18' E 103°43'0 0.0
2017-Oct-12 08:29N 01°18' E 103°43'0 0.0
2017-Oct-12 07:59N 01°18' E 103°43'0 0.0
2017-Oct-12 07:29N 01°18' E 103°43'0 0.0
2017-Oct-12 06:59N 01°18' E 103°43'0 0.0
2017-Oct-12 06:29N 01°18' E 103°43'0 0.0
2017-Oct-12 05:59N 01°18' E 103°43'0 0.0
2017-Oct-12 05:29N 01°18' E 103°43'0 0.0
2017-Oct-12 04:59N 01°18' E 103°43'0 0.0
2017-Oct-12 04:26N 01°18' E 103°43'0 0.0
2017-Oct-12 03:59N 01°18' E 103°43'0 0.0
2017-Oct-12 03:29N 01°18' E 103°43'0 0.0
2017-Oct-12 02:59N 01°18' E 103°43'0 0.0
2017-Oct-12 02:29N 01°18' E 103°43'0 0.0
2017-Oct-12 01:59N 01°18' E 103°43'0 0.0
2017-Oct-12 01:29N 01°18' E 103°43'0 0.0
2017-Oct-12 00:59N 01°18' E 103°43'0 0.0
2017-Oct-12 00:29N 01°18' E 103°43'0 0.0
2017-Oct-11 23:59N 01°18' E 103°43'0 0.0
2017-Oct-11 23:29N 01°18' E 103°43'0 0.0
2017-Oct-11 22:59N 01°18' E 103°43'0 0.0
2017-Oct-11 22:29N 01°18' E 103°43'0 0.0
2017-Oct-11 21:59N 01°18' E 103°43'0 0.0
2017-Oct-11 21:29N 01°18' E 103°43'0 0.0
2017-Oct-11 20:59N 01°18' E 103°43'0 0.0
2017-Oct-11 20:29N 01°18' E 103°43'0 0.0
2017-Oct-11 19:59N 01°18' E 103°43'0 0.0
2017-Oct-11 19:26N 01°18' E 103°43'0 0.0
2017-Oct-11 18:56N 01°18' E 103°43'0 0.0
2017-Oct-11 18:29N 01°18' E 103°43'0 0.0
2017-Oct-11 17:44N 01°18' E 103°43'0 0.0
2017-Oct-11 17:23N 01°18' E 103°43'0 0.0
2017-Oct-11 16:59N 01°18' E 103°43'0 0.0
2017-Oct-10 23:56N 01°18' E 103°43'0 0.0
2017-Oct-10 23:29N 01°18' E 103°43'0 0.0
2017-Oct-10 22:59N 01°18' E 103°43'0 0.0
2017-Oct-10 22:29N 01°18' E 103°43'0 0.0
2017-Oct-10 21:59N 01°18' E 103°43'0 0.0
2017-Oct-10 21:29N 01°18' E 103°43'0 0.0
2017-Oct-10 20:59N 01°18' E 103°43'0 0.0
2017-Oct-10 20:29N 01°18' E 103°43'0 0.0
2017-Oct-10 19:59N 01°18' E 103°43'0 0.0
2017-Oct-10 19:26N 01°18' E 103°43'0 0.0
2017-Oct-10 18:59N 01°18' E 103°43'0 0.0
2017-Oct-10 18:29N 01°18' E 103°43'0 0.0
2017-Oct-10 17:59N 01°18' E 103°43'0 0.0
2017-Oct-10 17:29N 01°18' E 103°43'0 0.0
2017-Oct-10 16:59N 01°18' E 103°43'0 0.0
2017-Oct-10 16:29N 01°18' E 103°43'0 0.0
2017-Oct-10 15:59N 01°18' E 103°43'0 0.0
2017-Oct-10 15:29N 01°18' E 103°43'0 0.0
2017-Oct-10 14:59N 01°18' E 103°43'0 0.0
2017-Oct-10 13:59N 01°18' E 103°43'0 0.0
2017-Oct-10 13:29N 01°18' E 103°43'0 0.0
2017-Oct-10 12:59N 01°18' E 103°43'0 0.0
2017-Oct-10 12:29N 01°18' E 103°43'0 0.0
2017-Oct-10 11:59N 01°18' E 103°43'0 0.0
2017-Oct-10 11:29N 01°18' E 103°43'0 0.0
2017-Oct-10 10:59N 01°18' E 103°43'0 0.0
2017-Oct-10 10:29N 01°18' E 103°43'0 0.0
2017-Oct-10 09:59N 01°18' E 103°43'0 0.0
2017-Oct-10 09:29N 01°18' E 103°43'0 0.0
2017-Oct-10 08:59N 01°18' E 103°43'0 0.0
2017-Oct-10 08:29N 01°18' E 103°43'0 0.0
2017-Oct-10 07:59N 01°18' E 103°43'0 0.0
2017-Oct-10 07:29N 01°18' E 103°43'0 0.0
2017-Oct-10 06:56N 01°18' E 103°43'0 0.0
2017-Oct-10 06:29N 01°18' E 103°43'0 0.0
2017-Oct-10 05:59N 01°18' E 103°43'0 0.0
2017-Oct-10 05:29N 01°18' E 103°43'0 0.0
2017-Oct-10 04:59N 01°18' E 103°43'0 0.0
2017-Oct-10 04:29N 01°18' E 103°43'0 0.0
2017-Oct-10 03:59N 01°18' E 103°43'0 0.0
2017-Oct-10 03:25N 01°18' E 103°43'0 0.0
2017-Oct-10 02:58N 01°18' E 103°43'0 0.0
2017-Oct-10 02:29N 01°18' E 103°43'0 0.0
2017-Oct-10 01:59N 01°18' E 103°43'0 0.0
2017-Oct-10 01:28N 01°18' E 103°43'0 0.0
2017-Oct-10 00:59N 01°18' E 103°43'0 0.0
2017-Oct-10 00:28N 01°18' E 103°43'0 0.0
2017-Oct-09 23:58N 01°18' E 103°43'0 0.0
2017-Oct-09 23:28N 01°18' E 103°43'0 0.0
2017-Oct-09 22:59N 01°18' E 103°43'0 0.0
2017-Oct-09 22:28N 01°18' E 103°43'0 0.0
2017-Oct-09 21:55N 01°18' E 103°43'0 0.0
2017-Oct-09 21:25N 01°18' E 103°43'0 0.0
2017-Oct-09 20:59N 01°18' E 103°43'0 0.0
2017-Oct-09 20:29N 01°18' E 103°43'0 0.0
2017-Oct-09 19:59N 01°18' E 103°43'0 0.0
2017-Oct-09 19:28N 01°18' E 103°43'0 0.0
2017-Oct-09 18:58N 01°18' E 103°43'0 0.0
2017-Oct-09 18:29N 01°18' E 103°43'0 0.0
2017-Oct-09 17:59N 01°18' E 103°43'0 0.0
2017-Oct-09 17:28N 01°18' E 103°43'0 0.0
2017-Oct-09 16:58N 01°18' E 103°43'0 0.0
2017-Oct-09 16:28N 01°18' E 103°43'0 0.0
2017-Oct-09 15:58N 01°18' E 103°43'0 0.0
2017-Oct-09 15:25N 01°18' E 103°43'0 0.0
2017-Oct-09 14:58N 01°18' E 103°43'0 0.0
2017-Oct-09 14:29N 01°18' E 103°43'0 0.0
2017-Oct-09 13:56N 01°18' E 103°43'0 0.0
2017-Oct-09 13:28N 01°18' E 103°43'0 0.0
2017-Oct-09 12:58N 01°18' E 103°43'0 0.0
2017-Oct-09 12:25N 01°18' E 103°43'0 0.0
2017-Oct-09 11:58N 01°18' E 103°43'0 0.0
2017-Oct-09 11:28N 01°18' E 103°43'0 0.0
2017-Oct-09 10:58N 01°18' E 103°43'0 0.0
2017-Oct-09 10:28N 01°18' E 103°43'0 0.0
2017-Oct-09 09:59N 01°18' E 103°43'0 0.0
2017-Oct-09 09:28N 01°18' E 103°43'0 0.0
2017-Oct-09 08:58N 01°18' E 103°43'0 0.0
2017-Oct-09 08:28N 01°18' E 103°43'0 0.0
2017-Oct-09 07:59N 01°18' E 103°43'0 0.0
2017-Oct-09 07:28N 01°18' E 103°43'0 0.0
2017-Oct-09 06:58N 01°18' E 103°43'0 0.0
2017-Oct-09 06:25N 01°18' E 103°43'0 0.0
2017-Oct-09 05:58N 01°18' E 103°43'0 0.0
2017-Oct-09 05:28N 01°18' E 103°43'0 0.0
2017-Oct-09 04:58N 01°18' E 103°43'0 0.0
2017-Oct-09 04:28N 01°18' E 103°43'0 0.0
2017-Oct-09 03:58N 01°18' E 103°43'0 0.0
2017-Oct-09 03:28N 01°18' E 103°43'0 0.0
2017-Oct-09 02:58N 01°18' E 103°43'0 0.0
2017-Oct-09 02:28N 01°18' E 103°43'0 0.0
2017-Oct-09 01:58N 01°18' E 103°43'0 0.0
2017-Oct-09 01:28N 01°18' E 103°43'0 0.0
2017-Oct-09 00:58N 01°18' E 103°43'0 0.0
2017-Oct-09 00:28N 01°18' E 103°43'0 0.0
2017-Oct-08 23:58N 01°18' E 103°43'0 0.0
2017-Oct-08 23:25N 01°18' E 103°43'0 0.0
2017-Oct-08 22:58N 01°18' E 103°43'0 0.0
2017-Oct-08 22:28N 01°18' E 103°43'0 0.0
2017-Oct-08 21:49N 01°18' E 103°43'0 0.0
2017-Oct-08 21:25N 01°18' E 103°43'0 0.0
2017-Oct-08 20:55N 01°18' E 103°43'0 0.0
2017-Oct-08 20:25N 01°18' E 103°43'0 0.0
2017-Oct-08 19:55N 01°18' E 103°43'0 0.0
2017-Oct-08 19:22N 01°18' E 103°43'0 0.0
2017-Oct-08 18:58N 01°18' E 103°43'0 0.0
2017-Oct-08 18:28N 01°18' E 103°43'0 0.0
2017-Oct-08 17:58N 01°18' E 103°43'0 0.0
2017-Oct-08 17:28N 01°18' E 103°43'0 0.0
2017-Oct-08 16:58N 01°18' E 103°43'0 0.0
2017-Oct-08 16:28N 01°18' E 103°43'0 0.0
2017-Oct-08 15:58N 01°18' E 103°43'0 0.0
2017-Oct-08 15:28N 01°18' E 103°43'0 0.0
2017-Oct-08 14:55N 01°18' E 103°43'0 0.0
2017-Oct-08 14:22N 01°18' E 103°43'0 0.0
2017-Oct-08 13:58N 01°18' E 103°43'0 0.0
2017-Oct-08 13:28N 01°18' E 103°43'0 0.0
2017-Oct-08 12:58N 01°18' E 103°43'0 0.0
2017-Oct-08 12:28N 01°18' E 103°43'0 0.0
2017-Oct-08 11:58N 01°18' E 103°43'0 0.0
2017-Oct-08 11:28N 01°18' E 103°43'0 0.0
2017-Oct-08 10:58N 01°18' E 103°43'0 0.0
2017-Oct-08 10:28N 01°18' E 103°43'0 0.0
2017-Oct-08 09:52N 01°18' E 103°43'0 0.0
2017-Oct-08 09:28N 01°18' E 103°43'0 0.0
2017-Oct-08 08:58N 01°18' E 103°43'0 0.0
2017-Oct-08 08:28N 01°18' E 103°43'0 0.0
2017-Oct-08 07:58N 01°18' E 103°43'0 0.0
2017-Oct-08 07:28N 01°18' E 103°43'0 0.0
2017-Oct-08 06:55N 01°18' E 103°43'0 0.0
2017-Oct-08 06:28N 01°18' E 103°43'0 0.0
2017-Oct-08 05:58N 01°18' E 103°43'0 0.0
2017-Oct-08 05:28N 01°18' E 103°43'0 0.0
2017-Oct-08 04:58N 01°18' E 103°43'0 0.0
2017-Oct-08 04:28N 01°18' E 103°43'0 0.0
2017-Oct-08 03:58N 01°18' E 103°43'0 0.0
2017-Oct-08 03:28N 01°18' E 103°43'0 0.0
2017-Oct-08 02:58N 01°18' E 103°43'0 0.0
2017-Oct-08 02:28N 01°18' E 103°43'0 0.0
2017-Oct-08 01:58N 01°18' E 103°43'0 0.0
2017-Oct-08 01:28N 01°18' E 103°43'0 0.0
2017-Oct-08 00:58N 01°18' E 103°43'0 0.0
2017-Oct-08 00:28N 01°18' E 103°43'0 0.0
2017-Oct-07 23:58N 01°18' E 103°43'0 0.0
2017-Oct-07 23:28N 01°18' E 103°43'0 0.0
2017-Oct-07 22:58N 01°18' E 103°43'0 0.0
2017-Oct-07 22:28N 01°18' E 103°43'0 0.0
2017-Oct-07 21:58N 01°18' E 103°43'0 0.0
2017-Oct-07 21:28N 01°18' E 103°43'0 0.0
2017-Oct-07 20:58N 01°18' E 103°43'0 0.0
2017-Oct-07 20:28N 01°18' E 103°43'0 0.0
2017-Oct-07 19:58N 01°18' E 103°43'0 0.0
2017-Oct-07 19:28N 01°18' E 103°43'0 0.0
2017-Oct-07 18:58N 01°18' E 103°43'0 0.0
2017-Oct-07 18:28N 01°18' E 103°43'0 0.0
2017-Oct-07 17:58N 01°18' E 103°43'0 0.0
2017-Oct-07 17:25N 01°18' E 103°43'0 0.0
2017-Oct-07 16:58N 01°18' E 103°43'0 0.0
2017-Oct-07 16:28N 01°18' E 103°43'0 0.0
2017-Oct-07 15:58N 01°18' E 103°43'0 0.0
2017-Oct-07 15:25N 01°18' E 103°43'0 0.0
2017-Oct-07 14:58N 01°18' E 103°43'510.1
2017-Oct-07 14:29N 01°15' E 103°47'1 2.1
2017-Oct-07 13:58N 01°14' E 103°47'1 1.6
2017-Oct-07 13:28N 01°14' E 103°48'0 1.0
2017-Oct-07 12:58N 01°14' E 103°49'0 0.5
2017-Oct-07 12:29N 01°14' E 103°49'712.8
2017-Oct-07 11:55N 01°18' E 103°43'0 0.0
2017-Oct-07 11:28N 01°18' E 103°43'0 0.0
2017-Oct-07 10:58N 01°18' E 103°43'0 0.0
2017-Oct-07 10:28N 01°18' E 103°43'0 0.0
2017-Oct-07 09:52N 01°18' E 103°43'0 0.0
2017-Oct-07 09:28N 01°18' E 103°43'0 0.0
2017-Oct-07 08:58N 01°18' E 103°43'0 0.0
2017-Oct-07 08:28N 01°18' E 103°43'0 0.0
2017-Oct-07 08:00N 01°18' E 103°43'1 1.2
2017-Oct-07 07:30N 01°18' E 103°44'0 0.9
2017-Oct-07 07:01N 01°18' E 103°44'2 4.9
2017-Oct-07 06:30N 01°16' E 103°46'4 7.1
2017-Oct-07 06:00N 01°14' E 103°49'0 0.7
2017-Oct-07 05:29N 01°14' E 103°49'0 0.0
2017-Oct-07 04:59N 01°14' E 103°49'0 0.0
2017-Oct-07 04:29N 01°14' E 103°49'0 0.0
2017-Oct-07 03:53N 01°14' E 103°49'0 0.2
2017-Oct-07 03:29N 01°14' E 103°49'0 0.1
2017-Oct-07 02:59N 01°14' E 103°49'0 0.1
2017-Oct-07 02:26N 01°14' E 103°49'0 0.3
2017-Oct-07 01:59N 01°14' E 103°49'0 0.1
2017-Oct-07 01:29N 01°14' E 103°49'0 0.2
2017-Oct-07 00:50N 01°14' E 103°49'0 0.2
2017-Oct-07 00:29N 01°14' E 103°49'0 0.2
2017-Oct-06 23:59N 01°14' E 103°49'0 0.0
2017-Oct-06 23:29N 01°14' E 103°49'0 0.0
2017-Oct-06 22:59N 01°14' E 103°49'0 0.0
2017-Oct-06 22:29N 01°14' E 103°49'0 0.0
2017-Oct-06 21:59N 01°14' E 103°49'0 0.0
2017-Oct-06 21:29N 01°14' E 103°49'0 0.0
2017-Oct-06 20:59N 01°14' E 103°49'0 0.0
2017-Oct-06 20:29N 01°14' E 103°49'0 0.1
2017-Oct-06 19:59N 01°14' E 103°49'0 0.0
2017-Oct-06 19:29N 01°14' E 103°49'0 0.0
2017-Oct-06 18:53N 01°14' E 103°49'0 0.0
2017-Oct-06 18:29N 01°14' E 103°49'0 0.0
2017-Oct-06 17:59N 01°14' E 103°49'0 0.1
2017-Oct-06 17:29N 01°14' E 103°49'0 0.1
2017-Oct-06 16:59N 01°14' E 103°49'0 0.1
2017-Oct-06 16:29N 01°14' E 103°49'0 0.1
2017-Oct-06 15:59N 01°14' E 103°49'0 0.3
2017-Oct-06 15:29N 01°14' E 103°49'0 0.1
2017-Oct-06 14:59N 01°14' E 103°49'0 0.2
2017-Oct-06 14:30N 01°14' E 103°49'0 0.4
2017-Oct-06 13:59N 01°14' E 103°49'0 0.2
2017-Oct-06 13:26N 01°14' E 103°49'0 0.2
2017-Oct-06 12:59N 01°14' E 103°49'0 0.0
2017-Oct-06 12:29N 01°14' E 103°49'0 0.2
2017-Oct-06 11:59N 01°14' E 103°49'0 0.2
2017-Oct-06 11:29N 01°14' E 103°49'0 0.1
2017-Oct-06 10:59N 01°14' E 103°49'0 0.1
2017-Oct-06 10:23N 01°14' E 103°49'0 0.0
2017-Oct-06 09:56N 01°14' E 103°49'0 0.0
2017-Oct-06 09:29N 01°14' E 103°49'0 0.1
2017-Oct-06 08:57N 01°14' E 103°49'0 0.1
2017-Oct-06 08:29N 01°14' E 103°49'0 0.0
2017-Oct-06 07:53N 01°14' E 103°49'0 0.0
2017-Oct-06 07:29N 01°14' E 103°49'0 0.0
2017-Oct-06 06:59N 01°14' E 103°49'0 0.0
2017-Oct-06 06:26N 01°14' E 103°49'0 0.0
2017-Oct-06 06:00N 01°14' E 103°49'0 0.0
2017-Oct-06 05:29N 01°14' E 103°49'0 0.0
2017-Oct-06 04:56N 01°14' E 103°49'0 0.1
2017-Oct-06 04:29N 01°14' E 103°49'0 0.2
2017-Oct-06 03:56N 01°14' E 103°49'0 0.3
2017-Oct-06 03:29N 01°14' E 103°49'0 0.2
2017-Oct-06 02:59N 01°14' E 103°49'0 0.0
2017-Oct-06 02:27N 01°14' E 103°49'0 0.1
2017-Oct-06 01:50N 01°14' E 103°49'0 0.2
2017-Oct-06 01:29N 01°14' E 103°49'0 0.1
2017-Oct-06 00:56N 01°14' E 103°49'0 0.1
2017-Oct-06 00:29N 01°14' E 103°49'0 0.2
2017-Oct-05 23:56N 01°14' E 103°49'0 0.1
2017-Oct-05 23:26N 01°14' E 103°49'0 0.0
2017-Oct-05 22:59N 01°14' E 103°49'0 0.0
2017-Oct-05 22:29N 01°14' E 103°49'0 0.0
2017-Oct-05 21:59N 01°14' E 103°49'0 0.0
2017-Oct-05 21:29N 01°14' E 103°49'0 0.0
2017-Oct-05 20:59N 01°14' E 103°49'0 0.0
2017-Oct-05 20:29N 01°14' E 103°49'0 0.0
2017-Oct-05 19:53N 01°14' E 103°49'0 0.1
2017-Oct-05 19:29N 01°14' E 103°49'0 0.0
2017-Oct-05 18:59N 01°14' E 103°49'0 0.0
2017-Oct-05 18:29N 01°14' E 103°49'0 0.0
2017-Oct-05 17:59N 01°14' E 103°49'0 0.2
2017-Oct-05 17:29N 01°14' E 103°49'0 0.0
2017-Oct-05 17:00N 01°14' E 103°49'0 0.1
2017-Oct-05 15:29N 01°14' E 103°49'0 0.1
2017-Oct-05 14:56N 01°14' E 103°49'0 0.0
2017-Oct-05 14:29N 01°14' E 103°49'0 0.1
2017-Oct-05 13:59N 01°14' E 103°49'0 0.2
2017-Oct-05 13:29N 01°14' E 103°49'0 0.1
2017-Oct-05 12:59N 01°14' E 103°49'0 0.2
2017-Oct-05 12:29N 01°14' E 103°49'0 0.0
2017-Oct-05 11:59N 01°14' E 103°49'0 0.0
2017-Oct-05 11:29N 01°14' E 103°49'0 0.0
2017-Oct-05 10:59N 01°14' E 103°49'0 0.0
2017-Oct-05 10:29N 01°14' E 103°49'0 0.2
2017-Oct-05 09:58N 01°14' E 103°49'0 0.2
2017-Oct-05 09:29N 01°14' E 103°49'0 0.1
2017-Oct-05 08:53N 01°14' E 103°49'0 0.0
2017-Oct-05 08:29N 01°14' E 103°49'0 0.0
2017-Oct-05 08:00N 01°14' E 103°49'0 0.0
2017-Oct-05 07:29N 01°14' E 103°49'0 0.0
2017-Oct-05 06:59N 01°14' E 103°49'0 0.0
2017-Oct-05 06:29N 01°14' E 103°49'0 0.0
2017-Oct-05 05:59N 01°14' E 103°49'0 0.0
2017-Oct-05 05:29N 01°14' E 103°49'0 0.0
2017-Oct-05 04:56N 01°14' E 103°49'0 0.0
2017-Oct-05 04:29N 01°14' E 103°49'0 0.0
2017-Oct-05 03:50N 01°14' E 103°49'0 0.1
2017-Oct-05 03:29N 01°14' E 103°49'0 0.1
2017-Oct-05 02:59N 01°14' E 103°49'0 0.1
2017-Oct-05 02:29N 01°14' E 103°49'0 0.1
2017-Oct-05 01:53N 01°14' E 103°49'0 0.0
2017-Oct-05 01:29N 01°14' E 103°49'0 0.0
2017-Oct-05 00:56N 01°14' E 103°49'0 0.0
2017-Oct-05 00:23N 01°14' E 103°49'0 0.0
2017-Oct-04 23:59N 01°14' E 103°49'0 0.2
2017-Oct-04 23:29N 01°14' E 103°49'0 0.0
2017-Oct-04 22:56N 01°14' E 103°49'0 0.0
2017-Oct-04 22:29N 01°14' E 103°49'0 0.0
2017-Oct-04 21:59N 01°14' E 103°49'0 0.0
2017-Oct-04 21:29N 01°14' E 103°49'0 0.0
2017-Oct-04 20:59N 01°14' E 103°49'0 0.0
2017-Oct-04 20:23N 01°14' E 103°49'0 0.0
2017-Oct-04 19:59N 01°14' E 103°49'0 0.0
2017-Oct-04 19:29N 01°14' E 103°49'0 0.0
2017-Oct-04 18:59N 01°14' E 103°49'0 0.0
2017-Oct-04 18:29N 01°14' E 103°49'0 0.0
2017-Oct-04 17:59N 01°14' E 103°49'0 0.0
2017-Oct-04 17:29N 01°14' E 103°49'0 0.0
2017-Oct-04 16:53N 01°14' E 103°49'0 0.0
2017-Oct-04 16:29N 01°14' E 103°49'0 0.1
2017-Oct-04 15:59N 01°14' E 103°49'0 0.1
2017-Oct-04 15:29N 01°14' E 103°49'0 0.0
2017-Oct-04 14:56N 01°14' E 103°49'0 0.0
2017-Oct-04 14:29N 01°14' E 103°49'0 0.0
2017-Oct-04 13:59N 01°14' E 103°49'0 0.2
2017-Oct-04 13:23N 01°14' E 103°49'0 0.2
2017-Oct-04 12:59N 01°14' E 103°49'0 0.1
2017-Oct-04 12:26N 01°14' E 103°49'0 0.1
2017-Oct-04 11:56N 01°14' E 103°49'0 0.1
2017-Oct-04 11:29N 01°14' E 103°49'0 0.1
2017-Oct-04 10:59N 01°14' E 103°49'0 0.1
2017-Oct-04 10:26N 01°14' E 103°49'0 0.2
2017-Oct-04 09:56N 01°14' E 103°49'0 0.1
2017-Oct-04 09:29N 01°14' E 103°49'0 0.2
2017-Oct-04 08:53N 01°14' E 103°49'0 0.3
2017-Oct-04 08:29N 01°14' E 103°49'0 0.1
2017-Oct-04 07:56N 01°14' E 103°49'0 0.0
2017-Oct-04 07:29N 01°14' E 103°49'0 0.0
2017-Oct-04 06:56N 01°14' E 103°49'0 0.0
2017-Oct-04 06:26N 01°14' E 103°49'0 0.1
2017-Oct-04 05:53N 01°14' E 103°49'0 0.2
2017-Oct-04 05:29N 01°14' E 103°49'0 0.1
2017-Oct-04 04:56N 01°14' E 103°49'0 0.2
2017-Oct-04 04:29N 01°14' E 103°49'0 0.0
2017-Oct-04 03:53N 01°14' E 103°49'0 0.0
2017-Oct-04 03:29N 01°14' E 103°49'0 0.0
2017-Oct-04 02:56N 01°14' E 103°49'0 0.0
2017-Oct-04 02:23N 01°14' E 103°49'0 0.0
2017-Oct-04 01:53N 01°14' E 103°49'1434.7
2017-Oct-04 01:29N 01°16' E 104°02'  
Track history (hours):
 
Tides and Currents Weather Stations Pressure Air Temp Water Temp Dewpoint Dewpoint Depression Visibility Wind Speed Wind Dir Waves Ship Positions

Ivs Kestrel

Last reported at 2017-Oct-14 01:24 UTC. Time now 2017-Oct-17 13:07 UTC.
Position N 01°15' E 104°08'.

Length 171 m; draft 6.6 m.

Type: Ship. MMSI: 564634000.

Date/timePositionNaut miles runAvg speedWind from/ knotsBaromVisibWave heightAir tempDewpointWater temp
2017-Oct-14 01:24N 01°15' E 104°08'1 3.1
2017-Oct-14 00:58N 01°15' E 104°07'1 3.0
2017-Oct-14 00:29N 01°15' E 104°06'2 3.0
2017-Oct-13 23:49N 01°15' E 104°04'1 2.9
2017-Oct-13 23:30N 01°14' E 104°03'1 2.9
2017-Oct-13 23:00N 01°14' E 104°01'2 2.9
2017-Oct-13 22:30N 01°14' E 103°60'6 0.7
2017-Oct-13 14:07N 01°15' E 104°05'214.2
2017-Oct-13 14:00N 01°15' E 104°04'713.9
2017-Oct-13 13:30N 01°13' E 103°57'713.5
2017-Oct-13 13:00N 01°11' E 103°51'3 6.3
2017-Oct-13 12:31N 01°13' E 103°48'510.0
2017-Oct-13 12:01N 01°16' E 103°45'2 3.9
2017-Oct-13 11:26N 01°18' E 103°43'0 0.6
2017-Oct-13 10:59N 01°18' E 103°43'0 0.0
2017-Oct-13 10:29N 01°18' E 103°43'0 0.0
2017-Oct-13 09:56N 01°18' E 103°43'0 0.0
2017-Oct-13 09:29N 01°18' E 103°43'0 0.0
2017-Oct-13 08:59N 01°18' E 103°43'0 0.0
2017-Oct-13 08:29N 01°18' E 103°43'0 0.0
2017-Oct-13 07:59N 01°18' E 103°43'0 0.0
2017-Oct-13 07:29N 01°18' E 103°43'0 0.0
2017-Oct-13 06:59N 01°18' E 103°43'0 0.0
2017-Oct-13 06:29N 01°18' E 103°43'0 0.0
2017-Oct-13 05:59N 01°18' E 103°43'0 0.0
2017-Oct-13 05:29N 01°18' E 103°43'0 0.0
2017-Oct-13 04:59N 01°18' E 103°43'0 0.0
2017-Oct-13 04:29N 01°18' E 103°43'0 0.0
2017-Oct-13 03:59N 01°18' E 103°43'0 0.0
2017-Oct-13 03:29N 01°18' E 103°43'0 0.0
2017-Oct-13 02:59N 01°18' E 103°43'0 0.0
2017-Oct-13 02:29N 01°18' E 103°43'0 0.0
2017-Oct-13 01:59N 01°18' E 103°43'0 0.0
2017-Oct-13 01:29N 01°18' E 103°43'0 0.0
2017-Oct-13 00:59N 01°18' E 103°43'0 0.0
2017-Oct-13 00:29N 01°18' E 103°43'0 0.0
2017-Oct-12 23:59N 01°18' E 103°43'0 0.0
2017-Oct-12 23:29N 01°18' E 103°43'0 0.0
2017-Oct-12 22:59N 01°18' E 103°43'0 0.0
2017-Oct-12 22:29N 01°18' E 103°43'0 0.0
2017-Oct-12 21:59N 01°18' E 103°43'0 0.0
2017-Oct-12 21:29N 01°18' E 103°43'0 0.0
2017-Oct-12 20:59N 01°18' E 103°43'0 0.0
2017-Oct-12 20:29N 01°18' E 103°43'0 0.0
2017-Oct-12 19:59N 01°18' E 103°43'0 0.0
2017-Oct-12 19:29N 01°18' E 103°43'0 0.0
2017-Oct-12 18:59N 01°18' E 103°43'0 0.0
2017-Oct-12 18:29N 01°18' E 103°43'0 0.0
2017-Oct-12 17:59N 01°18' E 103°43'0 0.0
2017-Oct-12 17:29N 01°18' E 103°43'0 0.0
2017-Oct-12 16:59N 01°18' E 103°43'0 0.0
2017-Oct-12 16:29N 01°18' E 103°43'0 0.0
2017-Oct-12 15:59N 01°18' E 103°43'0 0.0
2017-Oct-12 15:29N 01°18' E 103°43'0 0.0
2017-Oct-12 14:59N 01°18' E 103°43'0 0.0
2017-Oct-12 14:29N 01°18' E 103°43'0 0.0
2017-Oct-12 13:59N 01°18' E 103°43'0 0.0
2017-Oct-12 13:29N 01°18' E 103°43'0 0.0
2017-Oct-12 12:59N 01°18' E 103°43'0 0.0
2017-Oct-12 12:29N 01°18' E 103°43'0 0.0
2017-Oct-12 11:53N 01°18' E 103°43'0 0.0
2017-Oct-12 11:29N 01°18' E 103°43'0 0.0
2017-Oct-12 10:59N 01°18' E 103°43'0 0.0
2017-Oct-12 10:29N 01°18' E 103°43'0 0.0
2017-Oct-12 09:59N 01°18' E 103°43'0 0.0
2017-Oct-12 09:29N 01°18' E 103°43'0 0.0
2017-Oct-12 08:59N 01°18' E 103°43'0 0.0
2017-Oct-12 08:29N 01°18' E 103°43'0 0.0
2017-Oct-12 07:59N 01°18' E 103°43'0 0.0
2017-Oct-12 07:29N 01°18' E 103°43'0 0.0
2017-Oct-12 06:59N 01°18' E 103°43'0 0.0
2017-Oct-12 06:29N 01°18' E 103°43'0 0.0
2017-Oct-12 05:59N 01°18' E 103°43'0 0.0
2017-Oct-12 05:29N 01°18' E 103°43'0 0.0
2017-Oct-12 04:59N 01°18' E 103°43'0 0.0
2017-Oct-12 04:26N 01°18' E 103°43'0 0.0
2017-Oct-12 03:59N 01°18' E 103°43'0 0.0
2017-Oct-12 03:29N 01°18' E 103°43'0 0.0
2017-Oct-12 02:59N 01°18' E 103°43'0 0.0
2017-Oct-12 02:29N 01°18' E 103°43'0 0.0
2017-Oct-12 01:59N 01°18' E 103°43'0 0.0
2017-Oct-12 01:29N 01°18' E 103°43'0 0.0
2017-Oct-12 00:59N 01°18' E 103°43'0 0.0
2017-Oct-12 00:29N 01°18' E 103°43'0 0.0
2017-Oct-11 23:59N 01°18' E 103°43'0 0.0
2017-Oct-11 23:29N 01°18' E 103°43'0 0.0
2017-Oct-11 22:59N 01°18' E 103°43'0 0.0
2017-Oct-11 22:29N 01°18' E 103°43'0 0.0
2017-Oct-11 21:59N 01°18' E 103°43'0 0.0
2017-Oct-11 21:29N 01°18' E 103°43'0 0.0
2017-Oct-11 20:59N 01°18' E 103°43'0 0.0
2017-Oct-11 20:29N 01°18' E 103°43'0 0.0
2017-Oct-11 19:59N 01°18' E 103°43'0 0.0
2017-Oct-11 19:26N 01°18' E 103°43'0 0.0
2017-Oct-11 18:56N 01°18' E 103°43'0 0.0
2017-Oct-11 18:29N 01°18' E 103°43'0 0.0
2017-Oct-11 17:44N 01°18' E 103°43'0 0.0
2017-Oct-11 17:23N 01°18' E 103°43'0 0.0
2017-Oct-11 16:59N 01°18' E 103°43'0 0.0
2017-Oct-10 23:56N 01°18' E 103°43'0 0.0
2017-Oct-10 23:29N 01°18' E 103°43'0 0.0
2017-Oct-10 22:59N 01°18' E 103°43'0 0.0
2017-Oct-10 22:29N 01°18' E 103°43'0 0.0
2017-Oct-10 21:59N 01°18' E 103°43'0 0.0
2017-Oct-10 21:29N 01°18' E 103°43'0 0.0
2017-Oct-10 20:59N 01°18' E 103°43'0 0.0
2017-Oct-10 20:29N 01°18' E 103°43'0 0.0
2017-Oct-10 19:59N 01°18' E 103°43'0 0.0
2017-Oct-10 19:26N 01°18' E 103°43'0 0.0
2017-Oct-10 18:59N 01°18' E 103°43'0 0.0
2017-Oct-10 18:29N 01°18' E 103°43'0 0.0
2017-Oct-10 17:59N 01°18' E 103°43'0 0.0
2017-Oct-10 17:29N 01°18' E 103°43'0 0.0
2017-Oct-10 16:59N 01°18' E 103°43'0 0.0
2017-Oct-10 16:29N 01°18' E 103°43'0 0.0
2017-Oct-10 15:59N 01°18' E 103°43'0 0.0
2017-Oct-10 15:29N 01°18' E 103°43'0 0.0
2017-Oct-10 14:59N 01°18' E 103°43'0 0.0
2017-Oct-10 13:59N 01°18' E 103°43'0 0.0
2017-Oct-10 13:29N 01°18' E 103°43'0 0.0
2017-Oct-10 12:59N 01°18' E 103°43'0 0.0
2017-Oct-10 12:29N 01°18' E 103°43'0 0.0
2017-Oct-10 11:59N 01°18' E 103°43'0 0.0
2017-Oct-10 11:29N 01°18' E 103°43'0 0.0
2017-Oct-10 10:59N 01°18' E 103°43'0 0.0
2017-Oct-10 10:29N 01°18' E 103°43'0 0.0
2017-Oct-10 09:59N 01°18' E 103°43'0 0.0
2017-Oct-10 09:29N 01°18' E 103°43'0 0.0
2017-Oct-10 08:59N 01°18' E 103°43'0 0.0
2017-Oct-10 08:29N 01°18' E 103°43'0 0.0
2017-Oct-10 07:59N 01°18' E 103°43'0 0.0
2017-Oct-10 07:29N 01°18' E 103°43'0 0.0
2017-Oct-10 06:56N 01°18' E 103°43'0 0.0
2017-Oct-10 06:29N 01°18' E 103°43'0 0.0
2017-Oct-10 05:59N 01°18' E 103°43'0 0.0
2017-Oct-10 05:29N 01°18' E 103°43'0 0.0
2017-Oct-10 04:59N 01°18' E 103°43'0 0.0
2017-Oct-10 04:29N 01°18' E 103°43'0 0.0
2017-Oct-10 03:59N 01°18' E 103°43'0 0.0
2017-Oct-10 03:25N 01°18' E 103°43'0 0.0
2017-Oct-10 02:58N 01°18' E 103°43'0 0.0
2017-Oct-10 02:29N 01°18' E 103°43'0 0.0
2017-Oct-10 01:59N 01°18' E 103°43'0 0.0
2017-Oct-10 01:28N 01°18' E 103°43'0 0.0
2017-Oct-10 00:59N 01°18' E 103°43'0 0.0
2017-Oct-10 00:28N 01°18' E 103°43'0 0.0
2017-Oct-09 23:58N 01°18' E 103°43'0 0.0
2017-Oct-09 23:28N 01°18' E 103°43'0 0.0
2017-Oct-09 22:59N 01°18' E 103°43'0 0.0
2017-Oct-09 22:28N 01°18' E 103°43'0 0.0
2017-Oct-09 21:55N 01°18' E 103°43'0 0.0
2017-Oct-09 21:25N 01°18' E 103°43'0 0.0
2017-Oct-09 20:59N 01°18' E 103°43'0 0.0
2017-Oct-09 20:29N 01°18' E 103°43'0 0.0
2017-Oct-09 19:59N 01°18' E 103°43'0 0.0
2017-Oct-09 19:28N 01°18' E 103°43'0 0.0
2017-Oct-09 18:58N 01°18' E 103°43'0 0.0
2017-Oct-09 18:29N 01°18' E 103°43'0 0.0
2017-Oct-09 17:59N 01°18' E 103°43'0 0.0
2017-Oct-09 17:28N 01°18' E 103°43'0 0.0
2017-Oct-09 16:58N 01°18' E 103°43'0 0.0
2017-Oct-09 16:28N 01°18' E 103°43'0 0.0
2017-Oct-09 15:58N 01°18' E 103°43'0 0.0
2017-Oct-09 15:25N 01°18' E 103°43'0 0.0
2017-Oct-09 14:58N 01°18' E 103°43'0 0.0
2017-Oct-09 14:29N 01°18' E 103°43'0 0.0
2017-Oct-09 13:56N 01°18' E 103°43'0 0.0
2017-Oct-09 13:28N 01°18' E 103°43'0 0.0
2017-Oct-09 12:58N 01°18' E 103°43'0 0.0
2017-Oct-09 12:25N 01°18' E 103°43'0 0.0
2017-Oct-09 11:58N 01°18' E 103°43'0 0.0
2017-Oct-09 11:28N 01°18' E 103°43'0 0.0
2017-Oct-09 10:58N 01°18' E 103°43'0 0.0
2017-Oct-09 10:28N 01°18' E 103°43'0 0.0
2017-Oct-09 09:59N 01°18' E 103°43'0 0.0
2017-Oct-09 09:28N 01°18' E 103°43'0 0.0
2017-Oct-09 08:58N 01°18' E 103°43'0 0.0
2017-Oct-09 08:28N 01°18' E 103°43'0 0.0
2017-Oct-09 07:59N 01°18' E 103°43'0 0.0
2017-Oct-09 07:28N 01°18' E 103°43'0 0.0
2017-Oct-09 06:58N 01°18' E 103°43'0 0.0
2017-Oct-09 06:25N 01°18' E 103°43'0 0.0
2017-Oct-09 05:58N 01°18' E 103°43'0 0.0
2017-Oct-09 05:28N 01°18' E 103°43'0 0.0
2017-Oct-09 04:58N 01°18' E 103°43'0 0.0
2017-Oct-09 04:28N 01°18' E 103°43'0 0.0
2017-Oct-09 03:58N 01°18' E 103°43'0 0.0
2017-Oct-09 03:28N 01°18' E 103°43'0 0.0
2017-Oct-09 02:58N 01°18' E 103°43'0 0.0
2017-Oct-09 02:28N 01°18' E 103°43'0 0.0
2017-Oct-09 01:58N 01°18' E 103°43'0 0.0
2017-Oct-09 01:28N 01°18' E 103°43'0 0.0
2017-Oct-09 00:58N 01°18' E 103°43'0 0.0
2017-Oct-09 00:28N 01°18' E 103°43'0 0.0
2017-Oct-08 23:58N 01°18' E 103°43'0 0.0
2017-Oct-08 23:25N 01°18' E 103°43'0 0.0
2017-Oct-08 22:58N 01°18' E 103°43'0 0.0
2017-Oct-08 22:28N 01°18' E 103°43'0 0.0
2017-Oct-08 21:49N 01°18' E 103°43'0 0.0
2017-Oct-08 21:25N 01°18' E 103°43'0 0.0
2017-Oct-08 20:55N 01°18' E 103°43'0 0.0
2017-Oct-08 20:25N 01°18' E 103°43'0 0.0
2017-Oct-08 19:55N 01°18' E 103°43'0 0.0
2017-Oct-08 19:22N 01°18' E 103°43'0 0.0
2017-Oct-08 18:58N 01°18' E 103°43'0 0.0
2017-Oct-08 18:28N 01°18' E 103°43'0 0.0
2017-Oct-08 17:58N 01°18' E 103°43'0 0.0
2017-Oct-08 17:28N 01°18' E 103°43'0 0.0
2017-Oct-08 16:58N 01°18' E 103°43'0 0.0
2017-Oct-08 16:28N 01°18' E 103°43'0 0.0
2017-Oct-08 15:58N 01°18' E 103°43'0 0.0
2017-Oct-08 15:28N 01°18' E 103°43'0 0.0
2017-Oct-08 14:55N 01°18' E 103°43'0 0.0
2017-Oct-08 14:22N 01°18' E 103°43'0 0.0
2017-Oct-08 13:58N 01°18' E 103°43'0 0.0
2017-Oct-08 13:28N 01°18' E 103°43'0 0.0
2017-Oct-08 12:58N 01°18' E 103°43'0 0.0
2017-Oct-08 12:28N 01°18' E 103°43'0 0.0
2017-Oct-08 11:58N 01°18' E 103°43'0 0.0
2017-Oct-08 11:28N 01°18' E 103°43'0 0.0
2017-Oct-08 10:58N 01°18' E 103°43'0 0.0
2017-Oct-08 10:28N 01°18' E 103°43'0 0.0
2017-Oct-08 09:52N 01°18' E 103°43'0 0.0
2017-Oct-08 09:28N 01°18' E 103°43'0 0.0
2017-Oct-08 08:58N 01°18' E 103°43'0 0.0
2017-Oct-08 08:28N 01°18' E 103°43'0 0.0
2017-Oct-08 07:58N 01°18' E 103°43'0 0.0
2017-Oct-08 07:28N 01°18' E 103°43'0 0.0
2017-Oct-08 06:55N 01°18' E 103°43'0 0.0
2017-Oct-08 06:28N 01°18' E 103°43'0 0.0
2017-Oct-08 05:58N 01°18' E 103°43'0 0.0
2017-Oct-08 05:28N 01°18' E 103°43'0 0.0
2017-Oct-08 04:58N 01°18' E 103°43'0 0.0
2017-Oct-08 04:28N 01°18' E 103°43'0 0.0
2017-Oct-08 03:58N 01°18' E 103°43'0 0.0
2017-Oct-08 03:28N 01°18' E 103°43'0 0.0
2017-Oct-08 02:58N 01°18' E 103°43'0 0.0
2017-Oct-08 02:28N 01°18' E 103°43'0 0.0
2017-Oct-08 01:58N 01°18' E 103°43'0 0.0
2017-Oct-08 01:28N 01°18' E 103°43'0 0.0
2017-Oct-08 00:58N 01°18' E 103°43'0 0.0
2017-Oct-08 00:28N 01°18' E 103°43'0 0.0
2017-Oct-07 23:58N 01°18' E 103°43'0 0.0
2017-Oct-07 23:28N 01°18' E 103°43'0 0.0
2017-Oct-07 22:58N 01°18' E 103°43'0 0.0
2017-Oct-07 22:28N 01°18' E 103°43'0 0.0
2017-Oct-07 21:58N 01°18' E 103°43'0 0.0
2017-Oct-07 21:28N 01°18' E 103°43'0 0.0
2017-Oct-07 20:58N 01°18' E 103°43'0 0.0
2017-Oct-07 20:28N 01°18' E 103°43'0 0.0
2017-Oct-07 19:58N 01°18' E 103°43'0 0.0
2017-Oct-07 19:28N 01°18' E 103°43'0 0.0
2017-Oct-07 18:58N 01°18' E 103°43'0 0.0
2017-Oct-07 18:28N 01°18' E 103°43'0 0.0
2017-Oct-07 17:58N 01°18' E 103°43'0 0.0
2017-Oct-07 17:25N 01°18' E 103°43'0 0.0
2017-Oct-07 16:58N 01°18' E 103°43'0 0.0
2017-Oct-07 16:28N 01°18' E 103°43'0 0.0
2017-Oct-07 15:58N 01°18' E 103°43'0 0.0
2017-Oct-07 15:25N 01°18' E 103°43'0 0.0
2017-Oct-07 14:58N 01°18' E 103°43'510.1
2017-Oct-07 14:29N 01°15' E 103°47'1 2.1
2017-Oct-07 13:58N 01°14' E 103°47'1 1.6
2017-Oct-07 13:28N 01°14' E 103°48'0 1.0
2017-Oct-07 12:58N 01°14' E 103°49'0 0.5
2017-Oct-07 12:29N 01°14' E 103°49'712.8
2017-Oct-07 11:55N 01°18' E 103°43'0 0.0
2017-Oct-07 11:28N 01°18' E 103°43'0 0.0
2017-Oct-07 10:58N 01°18' E 103°43'0 0.0
2017-Oct-07 10:28N 01°18' E 103°43'0 0.0
2017-Oct-07 09:52N 01°18' E 103°43'0 0.0
2017-Oct-07 09:28N 01°18' E 103°43'0 0.0
2017-Oct-07 08:58N 01°18' E 103°43'0 0.0
2017-Oct-07 08:28N 01°18' E 103°43'0 0.0
2017-Oct-07 08:00N 01°18' E 103°43'1 1.2
2017-Oct-07 07:30N 01°18' E 103°44'0 0.9
2017-Oct-07 07:01N 01°18' E 103°44'2 4.9
2017-Oct-07 06:30N 01°16' E 103°46'4 7.1
2017-Oct-07 06:00N 01°14' E 103°49'0 0.7
2017-Oct-07 05:29N 01°14' E 103°49'0 0.0
2017-Oct-07 04:59N 01°14' E 103°49'0 0.0
2017-Oct-07 04:29N 01°14' E 103°49'0 0.0
2017-Oct-07 03:53N 01°14' E 103°49'0 0.2
2017-Oct-07 03:29N 01°14' E 103°49'0 0.1
2017-Oct-07 02:59N 01°14' E 103°49'0 0.1
2017-Oct-07 02:26N 01°14' E 103°49'0 0.3
2017-Oct-07 01:59N 01°14' E 103°49'0 0.1
2017-Oct-07 01:29N 01°14' E 103°49'0 0.2
2017-Oct-07 00:50N 01°14' E 103°49'0 0.2
2017-Oct-07 00:29N 01°14' E 103°49'0 0.2
2017-Oct-06 23:59N 01°14' E 103°49'0 0.0
2017-Oct-06 23:29N 01°14' E 103°49'0 0.0
2017-Oct-06 22:59N 01°14' E 103°49'0 0.0
2017-Oct-06 22:29N 01°14' E 103°49'0 0.0
2017-Oct-06 21:59N 01°14' E 103°49'0 0.0
2017-Oct-06 21:29N 01°14' E 103°49'0 0.0
2017-Oct-06 20:59N 01°14' E 103°49'0 0.0
2017-Oct-06 20:29N 01°14' E 103°49'0 0.1
2017-Oct-06 19:59N 01°14' E 103°49'0 0.0
2017-Oct-06 19:29N 01°14' E 103°49'0 0.0
2017-Oct-06 18:53N 01°14' E 103°49'0 0.0
2017-Oct-06 18:29N 01°14' E 103°49'0 0.0
2017-Oct-06 17:59N 01°14' E 103°49'0 0.1
2017-Oct-06 17:29N 01°14' E 103°49'0 0.1
2017-Oct-06 16:59N 01°14' E 103°49'0 0.1
2017-Oct-06 16:29N 01°14' E 103°49'0 0.1
2017-Oct-06 15:59N 01°14' E 103°49'0 0.3
2017-Oct-06 15:29N 01°14' E 103°49'0 0.1
2017-Oct-06 14:59N 01°14' E 103°49'0 0.2
2017-Oct-06 14:30N 01°14' E 103°49'0 0.4
2017-Oct-06 13:59N 01°14' E 103°49'0 0.2
2017-Oct-06 13:26N 01°14' E 103°49'0 0.2
2017-Oct-06 12:59N 01°14' E 103°49'0 0.0
2017-Oct-06 12:29N 01°14' E 103°49'0 0.2
2017-Oct-06 11:59N 01°14' E 103°49'0 0.2
2017-Oct-06 11:29N 01°14' E 103°49'0 0.1
2017-Oct-06 10:59N 01°14' E 103°49'0 0.1
2017-Oct-06 10:23N 01°14' E 103°49'0 0.0
2017-Oct-06 09:56N 01°14' E 103°49'0 0.0
2017-Oct-06 09:29N 01°14' E 103°49'0 0.1
2017-Oct-06 08:57N 01°14' E 103°49'0 0.1
2017-Oct-06 08:29N 01°14' E 103°49'0 0.0
2017-Oct-06 07:53N 01°14' E 103°49'0 0.0
2017-Oct-06 07:29N 01°14' E 103°49'0 0.0
2017-Oct-06 06:59N 01°14' E 103°49'0 0.0
2017-Oct-06 06:26N 01°14' E 103°49'0 0.0
2017-Oct-06 06:00N 01°14' E 103°49'0 0.0
2017-Oct-06 05:29N 01°14' E 103°49'0 0.0
2017-Oct-06 04:56N 01°14' E 103°49'0 0.1
2017-Oct-06 04:29N 01°14' E 103°49'0 0.2
2017-Oct-06 03:56N 01°14' E 103°49'0 0.3
2017-Oct-06 03:29N 01°14' E 103°49'0 0.2
2017-Oct-06 02:59N 01°14' E 103°49'0 0.0
2017-Oct-06 02:27N 01°14' E 103°49'0 0.1
2017-Oct-06 01:50N 01°14' E 103°49'0 0.2
2017-Oct-06 01:29N 01°14' E 103°49'0 0.1
2017-Oct-06 00:56N 01°14' E 103°49'0 0.1
2017-Oct-06 00:29N 01°14' E 103°49'0 0.2
2017-Oct-05 23:56N 01°14' E 103°49'0 0.1
2017-Oct-05 23:26N 01°14' E 103°49'0 0.0
2017-Oct-05 22:59N 01°14' E 103°49'0 0.0
2017-Oct-05 22:29N 01°14' E 103°49'0 0.0
2017-Oct-05 21:59N 01°14' E 103°49'0 0.0
2017-Oct-05 21:29N 01°14' E 103°49'0 0.0
2017-Oct-05 20:59N 01°14' E 103°49'0 0.0
2017-Oct-05 20:29N 01°14' E 103°49'0 0.0
2017-Oct-05 19:53N 01°14' E 103°49'0 0.1
2017-Oct-05 19:29N 01°14' E 103°49'0 0.0
2017-Oct-05 18:59N 01°14' E 103°49'0 0.0
2017-Oct-05 18:29N 01°14' E 103°49'0 0.0
2017-Oct-05 17:59N 01°14' E 103°49'0 0.2
2017-Oct-05 17:29N 01°14' E 103°49'0 0.0
2017-Oct-05 17:00N 01°14' E 103°49'0 0.1
2017-Oct-05 15:29N 01°14' E 103°49'0 0.1
2017-Oct-05 14:56N 01°14' E 103°49'0 0.0
2017-Oct-05 14:29N 01°14' E 103°49'0 0.1
2017-Oct-05 13:59N 01°14' E 103°49'0 0.2
2017-Oct-05 13:29N 01°14' E 103°49'0 0.1
2017-Oct-05 12:59N 01°14' E 103°49'0 0.2
2017-Oct-05 12:29N 01°14' E 103°49'0 0.0
2017-Oct-05 11:59N 01°14' E 103°49'0 0.0
2017-Oct-05 11:29N 01°14' E 103°49'0 0.0
2017-Oct-05 10:59N 01°14' E 103°49'0 0.0
2017-Oct-05 10:29N 01°14' E 103°49'0 0.2
2017-Oct-05 09:58N 01°14' E 103°49'0 0.2
2017-Oct-05 09:29N 01°14' E 103°49'0 0.1
2017-Oct-05 08:53N 01°14' E 103°49'0 0.0
2017-Oct-05 08:29N 01°14' E 103°49'0 0.0
2017-Oct-05 08:00N 01°14' E 103°49'0 0.0
2017-Oct-05 07:29N 01°14' E 103°49'0 0.0
2017-Oct-05 06:59N 01°14' E 103°49'0 0.0
2017-Oct-05 06:29N 01°14' E 103°49'0 0.0
2017-Oct-05 05:59N 01°14' E 103°49'0 0.0
2017-Oct-05 05:29N 01°14' E 103°49'0 0.0
2017-Oct-05 04:56N 01°14' E 103°49'0 0.0
2017-Oct-05 04:29N 01°14' E 103°49'0 0.0
2017-Oct-05 03:50N 01°14' E 103°49'0 0.1
2017-Oct-05 03:29N 01°14' E 103°49'0 0.1
2017-Oct-05 02:59N 01°14' E 103°49'0 0.1
2017-Oct-05 02:29N 01°14' E 103°49'0 0.1
2017-Oct-05 01:53N 01°14' E 103°49'0 0.0
2017-Oct-05 01:29N 01°14' E 103°49'0 0.0
2017-Oct-05 00:56N 01°14' E 103°49'0 0.0
2017-Oct-05 00:23N 01°14' E 103°49'0 0.0
2017-Oct-04 23:59N 01°14' E 103°49'0 0.2
2017-Oct-04 23:29N 01°14' E 103°49'0 0.0
2017-Oct-04 22:56N 01°14' E 103°49'0 0.0
2017-Oct-04 22:29N 01°14' E 103°49'0 0.0
2017-Oct-04 21:59N 01°14' E 103°49'0 0.0
2017-Oct-04 21:29N 01°14' E 103°49'0 0.0
2017-Oct-04 20:59N 01°14' E 103°49'0 0.0
2017-Oct-04 20:23N 01°14' E 103°49'0 0.0
2017-Oct-04 19:59N 01°14' E 103°49'0 0.0
2017-Oct-04 19:29N 01°14' E 103°49'0 0.0
2017-Oct-04 18:59N 01°14' E 103°49'0 0.0
2017-Oct-04 18:29N 01°14' E 103°49'0 0.0
2017-Oct-04 17:59N 01°14' E 103°49'0 0.0
2017-Oct-04 17:29N 01°14' E 103°49'0 0.0
2017-Oct-04 16:53N 01°14' E 103°49'0 0.0
2017-Oct-04 16:29N 01°14' E 103°49'0 0.1
2017-Oct-04 15:59N 01°14' E 103°49'0 0.1
2017-Oct-04 15:29N 01°14' E 103°49'0 0.0
2017-Oct-04 14:56N 01°14' E 103°49'0 0.0
2017-Oct-04 14:29N 01°14' E 103°49'0 0.0
2017-Oct-04 13:59N 01°14' E 103°49'0 0.2
2017-Oct-04 13:23N 01°14' E 103°49'0 0.2
2017-Oct-04 12:59N 01°14' E 103°49'0 0.1
2017-Oct-04 12:26N 01°14' E 103°49'0 0.1
2017-Oct-04 11:56N 01°14' E 103°49'0 0.1
2017-Oct-04 11:29N 01°14' E 103°49'0 0.1
2017-Oct-04 10:59N 01°14' E 103°49'0 0.1
2017-Oct-04 10:26N 01°14' E 103°49'0 0.2
2017-Oct-04 09:56N 01°14' E 103°49'0 0.1
2017-Oct-04 09:29N 01°14' E 103°49'0 0.2
2017-Oct-04 08:53N 01°14' E 103°49'0 0.3
2017-Oct-04 08:29N 01°14' E 103°49'0 0.1
2017-Oct-04 07:56N 01°14' E 103°49'0 0.0
2017-Oct-04 07:29N 01°14' E 103°49'0 0.0
2017-Oct-04 06:56N 01°14' E 103°49'0 0.0
2017-Oct-04 06:26N 01°14' E 103°49'0 0.1
2017-Oct-04 05:53N 01°14' E 103°49'0 0.2
2017-Oct-04 05:29N 01°14' E 103°49'0 0.1
2017-Oct-04 04:56N 01°14' E 103°49'0 0.2
2017-Oct-04 04:29N 01°14' E 103°49'0 0.0
2017-Oct-04 03:53N 01°14' E 103°49'0 0.0
2017-Oct-04 03:29N 01°14' E 103°49'0 0.0
2017-Oct-04 02:56N 01°14' E 103°49'0 0.0
2017-Oct-04 02:23N 01°14' E 103°49'0 0.0
2017-Oct-04 01:53N 01°14' E 103°49'1434.7
2017-Oct-04 01:29N 01°16' E 104°02'  

Dump ship's entire track history